sensor_id;sensor_type;location;lat;lon;timestamp;pressure;altitude;pressure_sealevel;temperature;humidity
6132;BME280;3097;42.692;23.278;2023-04-01T00:01:43;94133.28;;;12.25;64.42
6132;BME280;3097;42.692;23.278;2023-04-01T00:04:09;94151.66;;;12.34;64.28
6132;BME280;3097;42.692;23.278;2023-04-01T00:06:34;94129.66;;;12.26;64.33
6132;BME280;3097;42.692;23.278;2023-04-01T00:09:01;94138.50;;;12.35;63.90
6132;BME280;3097;42.692;23.278;2023-04-01T00:11:27;94011.66;;;11.53;63.74
6132;BME280;3097;42.692;23.278;2023-04-01T00:13:53;94154.31;;;12.44;63.79
6132;BME280;3097;42.692;23.278;2023-04-01T00:16:19;94160.50;;;12.43;63.32
6132;BME280;3097;42.692;23.278;2023-04-01T00:18:44;94135.66;;;12.32;62.92
6132;BME280;3097;42.692;23.278;2023-04-01T00:21:12;94148.84;;;12.40;62.52
6132;BME280;3097;42.692;23.278;2023-04-01T00:23:37;94133.78;;;12.27;62.35
6132;BME280;3097;42.692;23.278;2023-04-01T00:26:03;94147.22;;;12.24;62.54
6132;BME280;3097;42.692;23.278;2023-04-01T00:28:29;94146.41;;;12.19;62.96
6132;BME280;3097;42.692;23.278;2023-04-01T00:30:54;94130.31;;;12.07;63.38
6132;BME280;3097;42.692;23.278;2023-04-01T00:33:20;94135.16;;;11.98;63.60
6132;BME280;3097;42.692;23.278;2023-04-01T00:35:46;94131.31;;;12.00;63.61
6132;BME280;3097;42.692;23.278;2023-04-01T00:38:12;94139.63;;;12.08;64.12
6132;BME280;3097;42.692;23.278;2023-04-01T00:40:43;94146.34;;;12.09;64.42
6132;BME280;3097;42.692;23.278;2023-04-01T00:43:17;94118.31;;;11.90;65.72
6132;BME280;3097;42.692;23.278;2023-04-01T00:45:48;94133.91;;;11.74;65.85
6132;BME280;3097;42.692;23.278;2023-04-01T00:48:25;94115.66;;;11.53;67.11
6132;BME280;3097;42.692;23.278;2023-04-01T00:50:55;94130.47;;;11.63;67.49
6132;BME280;3097;42.692;23.278;2023-04-01T00:53:22;94117.25;;;11.59;67.24
6132;BME280;3097;42.692;23.278;2023-04-01T00:55:58;94114.16;;;11.57;67.80
6132;BME280;3097;42.692;23.278;2023-04-01T00:58:27;94112.25;;;11.75;67.10
6132;BME280;3097;42.692;23.278;2023-04-01T01:00:56;94095.13;;;11.63;67.59
6132;BME280;3097;42.692;23.278;2023-04-01T01:03:23;94102.66;;;11.70;67.74
6132;BME280;3097;42.692;23.278;2023-04-01T01:09:52;94086.13;;;11.71;67.78
6132;BME280;3097;42.692;23.278;2023-04-01T01:17:32;94080.19;;;11.71;68.35
6132;BME280;3097;42.692;23.278;2023-04-01T01:27:57;94063.56;;;11.56;70.57
6132;BME280;3097;42.692;23.278;2023-04-01T01:30:51;94058.63;;;11.50;71.50
6132;BME280;3097;42.692;23.278;2023-04-01T01:36:27;94054.03;;;11.57;71.10
6132;BME280;3097;42.692;23.278;2023-04-01T01:38:56;94048.78;;;11.47;71.62
6132;BME280;3097;42.692;23.278;2023-04-01T01:41:23;94049.88;;;11.56;71.09
6132;BME280;3097;42.692;23.278;2023-04-01T01:43:53;94053.50;;;11.60;70.94
6132;BME280;3097;42.692;23.278;2023-04-01T01:46:22;94063.25;;;11.53;71.35
6132;BME280;3097;42.692;23.278;2023-04-01T01:48:49;94062.00;;;11.55;71.55
6132;BME280;3097;42.692;23.278;2023-04-01T01:51:18;94052.09;;;11.42;71.97
6132;BME280;3097;42.692;23.278;2023-04-01T01:53:44;94017.91;;;11.25;71.82
6132;BME280;3097;42.692;23.278;2023-04-01T01:56:10;94050.28;;;11.43;70.55
6132;BME280;3097;42.692;23.278;2023-04-01T01:58:48;94046.09;;;11.37;71.00
6132;BME280;3097;42.692;23.278;2023-04-01T02:03:47;94041.47;;;11.39;72.43
6132;BME280;3097;42.692;23.278;2023-04-01T02:06:16;94028.00;;;11.32;73.18
6132;BME280;3097;42.692;23.278;2023-04-01T02:08:51;94035.28;;;11.35;73.22
6132;BME280;3097;42.692;23.278;2023-04-01T02:11:24;94034.28;;;11.41;72.41
6132;BME280;3097;42.692;23.278;2023-04-01T02:14:11;94017.72;;;11.37;71.67
6132;BME280;3097;42.692;23.278;2023-04-01T02:16:46;94026.91;;;11.54;71.32
6132;BME280;3097;42.692;23.278;2023-04-01T02:19:15;94018.84;;;11.51;71.03
6132;BME280;3097;42.692;23.278;2023-04-01T02:21:49;94020.97;;;11.59;70.51
6132;BME280;3097;42.692;23.278;2023-04-01T02:24:19;94002.03;;;11.43;70.45
6132;BME280;3097;42.692;23.278;2023-04-01T02:26:49;93995.34;;;11.42;70.51
6132;BME280;3097;42.692;23.278;2023-04-01T02:29:18;94023.34;;;11.65;70.34
6132;BME280;3097;42.692;23.278;2023-04-01T02:31:45;94027.69;;;11.60;70.32
6132;BME280;3097;42.692;23.278;2023-04-01T02:34:11;94022.53;;;11.60;69.86
6132;BME280;3097;42.692;23.278;2023-04-01T02:36:37;94026.13;;;11.59;69.52
6132;BME280;3097;42.692;23.278;2023-04-01T02:39:04;94038.00;;;11.55;69.85
6132;BME280;3097;42.692;23.278;2023-04-01T02:41:30;94035.19;;;11.56;70.42
6132;BME280;3097;42.692;23.278;2023-04-01T02:43:56;94038.81;;;11.60;70.49
6132;BME280;3097;42.692;23.278;2023-04-01T02:46:24;94033.88;;;11.59;69.91
6132;BME280;3097;42.692;23.278;2023-04-01T02:48:49;93989.28;;;11.27;69.77
6132;BME280;3097;42.692;23.278;2023-04-01T02:51:15;94036.97;;;11.56;70.59
6132;BME280;3097;42.692;23.278;2023-04-01T02:53:41;94044.72;;;11.56;70.28
6132;BME280;3097;42.692;23.278;2023-04-01T02:56:06;94052.69;;;11.54;70.19
6132;BME280;3097;42.692;23.278;2023-04-01T02:58:32;94051.50;;;11.67;69.77
6132;BME280;3097;42.692;23.278;2023-04-01T03:00:57;94039.50;;;11.51;69.60
6132;BME280;3097;42.692;23.278;2023-04-01T03:03:22;94058.91;;;11.58;70.37
6132;BME280;3097;42.692;23.278;2023-04-01T03:05:48;94058.88;;;11.53;69.97
6132;BME280;3097;42.692;23.278;2023-04-01T03:08:13;94047.31;;;11.56;69.31
6132;BME280;3097;42.692;23.278;2023-04-01T03:10:39;94058.41;;;11.56;68.80
6132;BME280;3097;42.692;23.278;2023-04-01T03:13:05;94022.09;;;11.36;67.86
6132;BME280;3097;42.692;23.278;2023-04-01T03:15:31;94047.47;;;11.44;68.24
6132;BME280;3097;42.692;23.278;2023-04-01T03:17:56;94031.16;;;11.39;68.09
6132;BME280;3097;42.692;23.278;2023-04-01T03:20:22;94072.66;;;11.64;67.79
6132;BME280;3097;42.692;23.278;2023-04-01T03:22:47;94053.28;;;11.67;66.07
6132;BME280;3097;42.692;23.278;2023-04-01T03:25:13;94068.00;;;11.66;66.02
6132;BME280;3097;42.692;23.278;2023-04-01T03:27:39;94072.38;;;11.65;66.71
6132;BME280;3097;42.692;23.278;2023-04-01T03:30:06;94077.56;;;11.65;67.21
6132;BME280;3097;42.692;23.278;2023-04-01T03:32:31;94061.59;;;11.69;67.11
6132;BME280;3097;42.692;23.278;2023-04-01T03:34:57;94063.91;;;11.70;67.11
6132;BME280;3097;42.692;23.278;2023-04-01T03:37:23;94039.31;;;11.57;67.53
6132;BME280;3097;42.692;23.278;2023-04-01T03:39:49;94045.91;;;11.75;67.95
6132;BME280;3097;42.692;23.278;2023-04-01T03:42:15;94028.44;;;11.87;67.77
6132;BME280;3097;42.692;23.278;2023-04-01T03:44:40;94012.44;;;11.90;64.57
6132;BME280;3097;42.692;23.278;2023-04-01T03:47:06;94011.38;;;11.86;66.35
6132;BME280;3097;42.692;23.278;2023-04-01T03:49:32;93997.88;;;11.74;66.78
6132;BME280;3097;42.692;23.278;2023-04-01T03:51:58;93993.41;;;11.64;67.88
6132;BME280;3097;42.692;23.278;2023-04-01T03:54:23;93982.72;;;11.51;68.07
6132;BME280;3097;42.692;23.278;2023-04-01T03:56:49;93972.41;;;11.51;68.34
6132;BME280;3097;42.692;23.278;2023-04-01T03:59:15;93956.13;;;11.45;68.64
6132;BME280;3097;42.692;23.278;2023-04-01T04:01:40;93914.38;;;11.11;69.01
6132;BME280;3097;42.692;23.278;2023-04-01T04:04:06;93960.81;;;11.53;68.60
6132;BME280;3097;42.692;23.278;2023-04-01T04:06:32;93956.91;;;11.46;69.54
6132;BME280;3097;42.692;23.278;2023-04-01T04:08:58;93953.28;;;11.47;69.38
6132;BME280;3097;42.692;23.278;2023-04-01T04:11:23;93904.84;;;11.17;69.28
6132;BME280;3097;42.692;23.278;2023-04-01T04:13:49;93936.78;;;11.48;69.39
6132;BME280;3097;42.692;23.278;2023-04-01T04:16:16;93950.03;;;11.61;69.34
6132;BME280;3097;42.692;23.278;2023-04-01T04:18:41;93906.31;;;11.45;69.57
6132;BME280;3097;42.692;23.278;2023-04-01T04:21:13;93927.09;;;11.65;68.84
6132;BME280;3097;42.692;23.278;2023-04-01T04:23:39;93919.75;;;11.47;69.39
6132;BME280;3097;42.692;23.278;2023-04-01T04:26:10;93921.84;;;11.50;69.59
6132;BME280;3097;42.692;23.278;2023-04-01T04:28:36;93930.63;;;11.54;69.38
6132;BME280;3097;42.692;23.278;2023-04-01T04:31:02;93919.44;;;11.43;69.77
6132;BME280;3097;42.692;23.278;2023-04-01T04:33:29;93937.91;;;11.62;70.43
6132;BME280;3097;42.692;23.278;2023-04-01T04:35:57;93918.28;;;11.66;70.33
6132;BME280;3097;42.692;23.278;2023-04-01T04:38:22;93919.63;;;11.74;69.82
6132;BME280;3097;42.692;23.278;2023-04-01T04:40:48;93897.38;;;11.62;69.70
6132;BME280;3097;42.692;23.278;2023-04-01T04:43:15;93908.25;;;11.70;70.04
6132;BME280;3097;42.692;23.278;2023-04-01T04:45:41;93908.50;;;11.73;70.21
6132;BME280;3097;42.692;23.278;2023-04-01T04:48:08;93885.25;;;11.68;69.58
6132;BME280;3097;42.692;23.278;2023-04-01T04:50:34;93896.47;;;11.84;69.61
6132;BME280;3097;42.692;23.278;2023-04-01T04:53:00;93867.72;;;11.65;69.71
6132;BME280;3097;42.692;23.278;2023-04-01T04:55:25;93895.69;;;11.78;70.47
6132;BME280;3097;42.692;23.278;2023-04-01T04:57:51;93900.84;;;11.78;70.47
6132;BME280;3097;42.692;23.278;2023-04-01T05:00:16;93885.09;;;11.85;70.34
6132;BME280;3097;42.692;23.278;2023-04-01T05:02:42;93890.28;;;11.90;70.27
6132;BME280;3097;42.692;23.278;2023-04-01T05:05:08;93782.09;;;11.21;69.20
6132;BME280;3097;42.692;23.278;2023-04-01T05:07:34;93866.75;;;11.76;68.43
6132;BME280;3097;42.692;23.278;2023-04-01T05:09:59;93874.81;;;11.95;68.53
6132;BME280;3097;42.692;23.278;2023-04-01T05:12:25;93846.06;;;11.71;69.39
6132;BME280;3097;42.692;23.278;2023-04-01T05:14:50;93874.00;;;11.79;70.30
6132;BME280;3097;42.692;23.278;2023-04-01T05:17:16;93863.94;;;11.88;69.83
6132;BME280;3097;42.692;23.278;2023-04-01T05:19:41;93868.84;;;11.84;70.03
6132;BME280;3097;42.692;23.278;2023-04-01T05:22:07;93833.47;;;11.85;69.85
6132;BME280;3097;42.692;23.278;2023-04-01T05:24:33;93810.97;;;11.75;67.87
6132;BME280;3097;42.692;23.278;2023-04-01T05:26:58;93820.56;;;11.90;67.91
6132;BME280;3097;42.692;23.278;2023-04-01T05:29:25;93850.38;;;12.43;67.84
6132;BME280;3097;42.692;23.278;2023-04-01T05:31:50;93844.13;;;13.10;64.92
6132;BME280;3097;42.692;23.278;2023-04-01T05:34:16;93857.38;;;13.88;60.56
6132;BME280;3097;42.692;23.278;2023-04-01T05:36:42;93855.72;;;14.12;58.43
6132;BME280;3097;42.692;23.278;2023-04-01T05:39:08;93804.19;;;14.50;58.03
6132;BME280;3097;42.692;23.278;2023-04-01T05:41:37;93809.19;;;16.13;53.48
6132;BME280;3097;42.692;23.278;2023-04-01T05:44:04;93839.09;;;18.13;47.87
6132;BME280;3097;42.692;23.278;2023-04-01T05:46:30;93826.09;;;19.64;43.37
6132;BME280;3097;42.692;23.278;2023-04-01T05:48:55;93834.09;;;21.19;38.39
6132;BME280;3097;42.692;23.278;2023-04-01T05:51:21;93824.03;;;22.27;36.68
6132;BME280;3097;42.692;23.278;2023-04-01T05:53:46;93816.31;;;22.63;34.99
6132;BME280;3097;42.692;23.278;2023-04-01T05:56:12;93814.63;;;23.45;34.05
6132;BME280;3097;42.692;23.278;2023-04-01T05:58:38;93814.13;;;24.53;32.97
6132;BME280;3097;42.692;23.278;2023-04-01T06:01:08;93808.19;;;24.84;30.33
6132;BME280;3097;42.692;23.278;2023-04-01T06:03:35;93807.44;;;26.05;28.52
6132;BME280;3097;42.692;23.278;2023-04-01T06:06:00;93818.59;;;26.14;27.40
6132;BME280;3097;42.692;23.278;2023-04-01T06:08:27;93817.81;;;25.63;27.93
6132;BME280;3097;42.692;23.278;2023-04-01T06:30:23;93819.91;;;17.82;40.56
6132;BME280;3097;42.692;23.278;2023-04-01T06:54:31;93772.03;;;14.46;49.85
6132;BME280;3097;42.692;23.278;2023-04-01T06:57:03;93764.81;;;14.04;51.05
6132;BME280;3097;42.692;23.278;2023-04-01T06:59:34;93781.13;;;14.04;51.90
6132;BME280;3097;42.692;23.278;2023-04-01T07:02:44;93780.88;;;14.06;52.24
6132;BME280;3097;42.692;23.278;2023-04-01T07:05:11;93761.59;;;13.78;52.85
6132;BME280;3097;42.692;23.278;2023-04-01T07:07:50;93756.88;;;13.85;53.12
6132;BME280;3097;42.692;23.278;2023-04-01T07:13:10;93775.56;;;13.82;54.22
6132;BME280;3097;42.692;23.278;2023-04-01T07:15:44;93781.44;;;13.98;54.42
6132;BME280;3097;42.692;23.278;2023-04-01T07:18:19;93785.53;;;14.04;54.14
6132;BME280;3097;42.692;23.278;2023-04-01T07:20:48;93780.09;;;14.00;54.43
6132;BME280;3097;42.692;23.278;2023-04-01T07:23:26;93762.66;;;13.72;55.83
6132;BME280;3097;42.692;23.278;2023-04-01T07:26:04;93762.16;;;13.75;56.03
6132;BME280;3097;42.692;23.278;2023-04-01T07:28:32;93792.84;;;13.97;56.04
6132;BME280;3097;42.692;23.278;2023-04-01T07:31:23;93775.31;;;13.78;57.12
6132;BME280;3097;42.692;23.278;2023-04-01T07:37:11;93790.16;;;14.07;55.18
6132;BME280;3097;42.692;23.278;2023-04-01T07:39:49;93813.97;;;14.19;56.88
6132;BME280;3097;42.692;23.278;2023-04-01T07:43:35;93649.16;;;13.45;56.62
6132;BME280;3097;42.692;23.278;2023-04-01T07:54:10;93757.13;;;14.27;55.72
6132;BME280;3097;42.692;23.278;2023-04-01T07:56:57;93763.53;;;14.40;54.21
6132;BME280;3097;42.692;23.278;2023-04-01T07:59:42;93773.63;;;14.37;55.06
6132;BME280;3097;42.692;23.278;2023-04-01T08:05:19;93753.94;;;14.41;56.23
6132;BME280;3097;42.692;23.278;2023-04-01T08:20:04;93733.75;;;14.90;55.05
6132;BME280;3097;42.692;23.278;2023-04-01T08:22:39;93729.31;;;14.96;55.05
6132;BME280;3097;42.692;23.278;2023-04-01T08:25:14;93725.81;;;15.05;54.59
6132;BME280;3097;42.692;23.278;2023-04-01T08:27:44;93710.41;;;15.14;54.35
6132;BME280;3097;42.692;23.278;2023-04-01T08:32:47;93705.88;;;15.67;54.77
6132;BME280;3097;42.692;23.278;2023-04-01T08:37:45;93674.34;;;16.85;53.88
6132;BME280;3097;42.692;23.278;2023-04-01T08:40:51;93647.16;;;17.54;52.95
6132;BME280;3097;42.692;23.278;2023-04-01T08:43:36;93653.91;;;18.44;46.41
6132;BME280;3097;42.692;23.278;2023-04-01T08:46:22;93637.06;;;18.81;45.69
6132;BME280;3097;42.692;23.278;2023-04-01T08:48:54;93631.19;;;19.24;46.26
6132;BME280;3097;42.692;23.278;2023-04-01T09:00:15;93653.81;;;19.37;40.50
6132;BME280;3097;42.692;23.278;2023-04-01T09:05:36;93653.97;;;19.32;39.84
6132;BME280;3097;42.692;23.278;2023-04-01T09:17:04;93626.81;;;19.02;39.75
6132;BME280;3097;42.692;23.278;2023-04-01T09:19:17;93636.19;;;19.03;40.01
6132;BME280;3097;42.692;23.278;2023-04-01T09:33:11;93614.13;;;18.61;40.59
6132;BME280;3097;42.692;23.278;2023-04-01T09:36:03;93616.13;;;18.64;41.11
6132;BME280;3097;42.692;23.278;2023-04-01T09:38:35;93603.81;;;18.56;41.15
6132;BME280;3097;42.692;23.278;2023-04-01T09:44:15;93598.75;;;18.60;40.39
6132;BME280;3097;42.692;23.278;2023-04-01T09:49:32;93576.03;;;19.17;38.50
6132;BME280;3097;42.692;23.278;2023-04-01T09:52:21;93572.06;;;19.54;37.70
6132;BME280;3097;42.692;23.278;2023-04-01T10:00:46;93543.47;;;20.21;36.90
6132;BME280;3097;42.692;23.278;2023-04-01T10:06:14;93541.63;;;20.22;35.34
6132;BME280;3097;42.692;23.278;2023-04-01T10:11:42;93540.75;;;20.00;35.05
6132;BME280;3097;42.692;23.278;2023-04-01T10:20:01;93513.75;;;19.70;33.73
6132;BME280;3097;42.692;23.278;2023-04-01T10:26:04;93511.97;;;18.54;37.91
6132;BME280;3097;42.692;23.278;2023-04-01T10:37:30;93487.72;;;18.05;38.63
6132;BME280;3097;42.692;23.278;2023-04-01T10:54:44;93492.34;;;17.55;42.71
6132;BME280;3097;42.692;23.278;2023-04-01T11:03:27;93478.94;;;17.17;43.29
6132;BME280;3097;42.692;23.278;2023-04-01T11:33:46;93576.72;;;17.23;46.30
6132;BME280;3097;42.692;23.278;2023-04-01T11:36:37;93563.91;;;17.13;47.81
6132;BME280;3097;42.692;23.278;2023-04-01T11:45:15;93681.03;;;16.58;59.42
6132;BME280;3097;42.692;23.278;2023-04-01T11:50:30;93738.41;;;15.41;67.08
6132;BME280;3097;42.692;23.278;2023-04-01T11:55:54;93744.63;;;14.68;72.91
6132;BME280;3097;42.692;23.278;2023-04-01T12:04:26;93756.03;;;14.33;76.81
6132;BME280;3097;42.692;23.278;2023-04-01T12:12:35;93724.69;;;14.35;78.41
6132;BME280;3097;42.692;23.278;2023-04-01T12:18:00;93709.28;;;14.49;80.51
6132;BME280;3097;42.692;23.278;2023-04-01T12:20:39;93720.47;;;14.73;81.52
6132;BME280;3097;42.692;23.278;2023-04-01T12:29:07;93733.16;;;14.98;81.19
6132;BME280;3097;42.692;23.278;2023-04-01T12:37:17;93743.56;;;14.69;83.18
6132;BME280;3097;42.692;23.278;2023-04-01T12:46:12;93717.09;;;14.44;84.71
6132;BME280;3097;42.692;23.278;2023-04-01T13:08:04;93669.28;;;13.92;85.41
6132;BME280;3097;42.692;23.278;2023-04-01T13:19:00;93667.53;;;14.16;83.54
6132;BME280;3097;42.692;23.278;2023-04-01T13:21:34;93662.84;;;14.18;83.83
6132;BME280;3097;42.692;23.278;2023-04-01T13:26:50;93642.38;;;14.51;82.19
6132;BME280;3097;42.692;23.278;2023-04-01T13:29:43;93630.44;;;14.50;77.47
6132;BME280;3097;42.692;23.278;2023-04-01T13:35:10;93611.78;;;14.48;78.83
6132;BME280;3097;42.692;23.278;2023-04-01T13:43:10;93597.44;;;14.79;78.76
6132;BME280;3097;42.692;23.278;2023-04-01T13:51:59;93583.13;;;15.19;69.49
6132;BME280;3097;42.692;23.278;2023-04-01T14:02:51;93573.88;;;15.69;63.64
6132;BME280;3097;42.692;23.278;2023-04-01T14:05:32;93567.41;;;15.67;62.88
6132;BME280;3097;42.692;23.278;2023-04-01T14:25:25;93548.59;;;15.88;59.94
6132;BME280;3097;42.692;23.278;2023-04-01T14:36:46;93519.94;;;16.07;57.53
6132;BME280;3097;42.692;23.278;2023-04-01T14:47:32;93525.16;;;16.35;55.89
6132;BME280;3097;42.692;23.278;2023-04-01T14:50:25;93523.69;;;16.42;55.51
6132;BME280;3097;42.692;23.278;2023-04-01T14:53:12;93435.63;;;15.86;54.90
6132;BME280;3097;42.692;23.278;2023-04-01T15:03:59;93523.13;;;16.32;53.75
6132;BME280;3097;42.692;23.278;2023-04-01T15:09:36;93530.25;;;16.12;55.21
6132;BME280;3097;42.692;23.278;2023-04-01T15:28:39;93546.19;;;15.78;53.80
6132;BME280;3097;42.692;23.278;2023-04-01T15:31:19;93553.78;;;15.75;53.18
6132;BME280;3097;42.692;23.278;2023-04-01T15:36:44;93559.06;;;15.70;54.28
6132;BME280;3097;42.692;23.278;2023-04-01T15:39:42;93567.63;;;15.70;56.91
6132;BME280;3097;42.692;23.278;2023-04-01T15:49:57;93760.81;;;14.55;61.09
6132;BME280;3097;42.692;23.278;2023-04-01T15:52:41;93748.59;;;13.88;62.97
6132;BME280;3097;42.692;23.278;2023-04-01T15:55:19;93749.97;;;13.06;65.16
6132;BME280;3097;42.692;23.278;2023-04-01T16:06:56;93826.69;;;11.11;81.63
6132;BME280;3097;42.692;23.278;2023-04-01T16:09:48;93849.69;;;10.81;85.66
6132;BME280;3097;42.692;23.278;2023-04-01T16:15:17;93747.97;;;9.93;88.78
6132;BME280;3097;42.692;23.278;2023-04-01T16:18:09;93844.31;;;10.51;89.94
6132;BME280;3097;42.692;23.278;2023-04-01T16:21:06;93851.03;;;10.52;88.73
6132;BME280;3097;42.692;23.278;2023-04-01T16:23:48;93842.19;;;10.42;89.17
6132;BME280;3097;42.692;23.278;2023-04-01T16:26:24;93853.75;;;10.40;89.71
6132;BME280;3097;42.692;23.278;2023-04-01T16:29:09;93863.63;;;10.53;89.10
6132;BME280;3097;42.692;23.278;2023-04-01T16:31:43;93851.97;;;10.45;89.50
6132;BME280;3097;42.692;23.278;2023-04-01T16:34:22;93869.97;;;10.40;88.64
6132;BME280;3097;42.692;23.278;2023-04-01T16:36:55;93830.50;;;10.08;89.74
6132;BME280;3097;42.692;23.278;2023-04-01T16:39:50;93872.00;;;10.38;88.01
6132;BME280;3097;42.692;23.278;2023-04-01T16:47:35;93890.78;;;10.34;87.11
6132;BME280;3097;42.692;23.278;2023-04-01T16:50:14;93887.91;;;10.30;87.96
6132;BME280;3097;42.692;23.278;2023-04-01T16:55:34;93898.66;;;10.49;86.93
6132;BME280;3097;42.692;23.278;2023-04-01T16:58:00;93907.06;;;10.39;85.37
6132;BME280;3097;42.692;23.278;2023-04-01T17:00:38;93912.75;;;10.41;85.49
6132;BME280;3097;42.692;23.278;2023-04-01T17:03:13;93913.72;;;10.35;84.93
6132;BME280;3097;42.692;23.278;2023-04-01T17:09:25;93928.38;;;10.30;85.89
6132;BME280;3097;42.692;23.278;2023-04-01T17:23:23;93941.53;;;10.33;84.11
6132;BME280;3097;42.692;23.278;2023-04-01T17:26:11;93916.69;;;10.22;84.12
6132;BME280;3097;42.692;23.278;2023-04-01T17:28:48;93940.78;;;10.16;84.64
6132;BME280;3097;42.692;23.278;2023-04-01T17:34:41;93943.31;;;10.11;83.77
6132;BME280;3097;42.692;23.278;2023-04-01T17:40:37;93930.09;;;10.02;83.86
6132;BME280;3097;42.692;23.278;2023-04-01T17:45:55;93942.13;;;9.97;84.23
6132;BME280;3097;42.692;23.278;2023-04-01T17:54:11;93950.53;;;9.92;84.74
6132;BME280;3097;42.692;23.278;2023-04-01T17:57:26;93962.78;;;10.02;84.21
6132;BME280;3097;42.692;23.278;2023-04-01T18:17:17;93962.75;;;9.42;84.27
6132;BME280;3097;42.692;23.278;2023-04-01T18:20:09;94001.31;;;9.58;84.76
6132;BME280;3097;42.692;23.278;2023-04-01T18:22:45;94009.44;;;9.50;85.03
6132;BME280;3097;42.692;23.278;2023-04-01T18:25:22;94019.34;;;9.58;85.66
6132;BME280;3097;42.692;23.278;2023-04-01T18:30:29;93977.28;;;9.31;85.58
6132;BME280;3097;42.692;23.278;2023-04-01T18:33:03;94014.50;;;9.62;85.82
6132;BME280;3097;42.692;23.278;2023-04-01T18:38:31;94011.78;;;9.68;85.25
6132;BME280;3097;42.692;23.278;2023-04-01T18:41:12;94007.22;;;9.76;84.99
6132;BME280;3097;42.692;23.278;2023-04-01T18:46:16;94004.72;;;9.81;84.62
6132;BME280;3097;42.692;23.278;2023-04-01T18:49:20;94007.34;;;9.86;84.35
6132;BME280;3097;42.692;23.278;2023-04-01T18:51:57;94002.28;;;9.91;83.97
6132;BME280;3097;42.692;23.278;2023-04-01T18:54:31;94008.56;;;10.00;82.86
6132;BME280;3097;42.692;23.278;2023-04-01T18:57:03;93988.03;;;9.83;82.56
6132;BME280;3097;42.692;23.278;2023-04-01T18:59:55;94011.63;;;9.97;82.50
6132;BME280;3097;42.692;23.278;2023-04-01T19:02:39;94016.28;;;10.00;81.90
6132;BME280;3097;42.692;23.278;2023-04-01T19:07:54;94001.91;;;9.82;81.85
6132;BME280;3097;42.692;23.278;2023-04-01T19:10:31;94033.59;;;10.04;81.73
6132;BME280;3097;42.692;23.278;2023-04-01T19:21:33;94063.50;;;10.22;80.33
6132;BME280;3097;42.692;23.278;2023-04-01T19:24:12;94055.50;;;10.24;79.88
6132;BME280;3097;42.692;23.278;2023-04-01T19:27:26;94068.16;;;10.25;78.26
6132;BME280;3097;42.692;23.278;2023-04-01T19:35:26;94072.38;;;10.15;77.40
6132;BME280;3097;42.692;23.278;2023-04-01T19:46:14;94073.47;;;10.02;76.82
6132;BME280;3097;42.692;23.278;2023-04-01T19:56:52;94083.38;;;9.93;77.51
6132;BME280;3097;42.692;23.278;2023-04-01T20:04:38;94057.28;;;9.85;77.37
6132;BME280;3097;42.692;23.278;2023-04-01T20:07:26;94035.78;;;9.74;77.37
6132;BME280;3097;42.692;23.278;2023-04-01T20:17:54;94014.75;;;9.60;76.58
6132;BME280;3097;42.692;23.278;2023-04-01T20:20:28;94050.66;;;9.89;76.46
6132;BME280;3097;42.692;23.278;2023-04-01T20:30:45;94090.19;;;9.83;72.83
6132;BME280;3097;42.692;23.278;2023-04-01T20:33:37;94088.03;;;9.91;71.11
6132;BME280;3097;42.692;23.278;2023-04-01T20:36:36;94088.72;;;9.87;71.57
6132;BME280;3097;42.692;23.278;2023-04-01T20:50:28;94102.53;;;9.81;70.11
6132;BME280;3097;42.692;23.278;2023-04-01T20:53:04;94103.31;;;9.81;70.39
6132;BME280;3097;42.692;23.278;2023-04-01T21:28:35;94126.38;;;9.59;72.12
6132;BME280;3097;42.692;23.278;2023-04-01T21:31:15;94121.31;;;9.64;70.97
6132;BME280;3097;42.692;23.278;2023-04-01T21:33:59;94109.72;;;9.62;69.59
6132;BME280;3097;42.692;23.278;2023-04-01T22:07:19;94123.09;;;9.47;71.82
6132;BME280;3097;42.692;23.278;2023-04-01T22:10:01;94113.72;;;9.41;72.10
6132;BME280;3097;42.692;23.278;2023-04-01T22:12:35;94110.44;;;9.29;72.03
6132;BME280;3097;42.692;23.278;2023-04-01T22:23:36;94105.22;;;9.41;71.61
6132;BME280;3097;42.692;23.278;2023-04-01T22:26:06;94110.00;;;9.32;71.69
6132;BME280;3097;42.692;23.278;2023-04-01T22:31:44;94106.38;;;9.33;71.27
6132;BME280;3097;42.692;23.278;2023-04-01T22:42:36;94090.81;;;9.23;69.36
6132;BME280;3097;42.692;23.278;2023-04-01T22:48:28;94125.28;;;9.39;68.92
6132;BME280;3097;42.692;23.278;2023-04-01T22:51:03;94121.94;;;9.38;69.04
6132;BME280;3097;42.692;23.278;2023-04-01T22:56:07;94135.31;;;9.40;68.77
6132;BME280;3097;42.692;23.278;2023-04-01T22:58:42;94138.38;;;9.37;68.61
6132;BME280;3097;42.692;23.278;2023-04-01T23:01:19;94143.66;;;9.47;68.38
6132;BME280;3097;42.692;23.278;2023-04-01T23:03:49;94138.91;;;9.39;68.03
6132;BME280;3097;42.692;23.278;2023-04-01T23:06:24;94142.72;;;9.37;68.20
6132;BME280;3097;42.692;23.278;2023-04-01T23:09:08;94139.94;;;9.38;68.67
6132;BME280;3097;42.692;23.278;2023-04-01T23:17:16;94140.16;;;9.37;67.76
6132;BME280;3097;42.692;23.278;2023-04-01T23:19:54;94134.59;;;9.28;68.15
6132;BME280;3097;42.692;23.278;2023-04-01T23:24:53;94127.22;;;9.31;68.09
6132;BME280;3097;42.692;23.278;2023-04-01T23:27:41;94143.91;;;9.46;67.88
6132;BME280;3097;42.692;23.278;2023-04-01T23:33:21;94150.63;;;9.47;67.48
6132;BME280;3097;42.692;23.278;2023-04-01T23:38:13;94150.22;;;9.38;67.55
6132;BME280;3097;42.692;23.278;2023-04-01T23:40:40;94143.81;;;9.41;67.66
6132;BME280;3097;42.692;23.278;2023-04-01T23:43:23;94137.22;;;9.45;67.18
6132;BME280;3097;42.692;23.278;2023-04-01T23:45:50;94130.66;;;9.37;67.28
6132;BME280;3097;42.692;23.278;2023-04-01T23:48:18;94126.50;;;9.36;66.65
6132;BME280;3097;42.692;23.278;2023-04-01T23:50:46;94131.66;;;9.36;66.44
6132;BME280;3097;42.692;23.278;2023-04-01T23:53:21;94143.91;;;9.46;65.70
6132;BME280;3097;42.692;23.278;2023-04-01T23:55:48;94136.56;;;9.38;65.99
